Time;durP1;ratioP1;P1;durP2;ratioP2;P2;SDS_P1;SDS_P2;PMS_P1;PMS_P2;Temp;Humidity;BMP_temperature;BMP_pressure;BME280_temperature;BME280_humidity;BME280_pressure;Samples;Min_cycle;Max_cycle;Signal;HPM_P1;HPM_P2
2023/08/19 00:01:23;;;;;;;;;;;;;;;;;;5048310;28;19920;-60
2023/08/19 00:03:49;;;;;;;;;;;;;;;;;;5046361;28;19928;-60
2023/08/19 00:06:15;;;;;;;;;;;;;;;;;;5050802;28;19925;-60
2023/08/19 00:08:41;;;;;;;;;;;;;;;;;;5048441;28;20282;-60
2023/08/19 00:11:07;;;;;;;;;;;;;;;;;;5041151;28;19925;-60
2023/08/19 00:13:33;;;;;;;;;;;;;;;;;;5046629;28;20055;-60
2023/08/19 00:15:58;;;;;;;;;;;;;;;;;;5051953;28;20322;-60
2023/08/19 00:18:24;;;;;;;;;;;;;;;;;;5042116;28;19967;-60
2023/08/19 00:20:51;;;;;;;;;;;;;;;;;;5049812;28;19925;-60
2023/08/19 00:23:17;;;;;;;;;;;;;;;;;;5047557;28;19925;-60
2023/08/19 00:25:43;;;;;;;;;;;;;;;;;;5052315;28;19928;-60
2023/08/19 00:28:09;;;;;;;;;;;;;;;;;;5051013;28;19928;-60
2023/08/19 00:30:35;;;;;;;;;;;;;;;;;;5042853;28;20038;-60
2023/08/19 00:33:01;;;;;;;;;;;;;;;;;;5049978;28;20027;-60
2023/08/19 00:35:27;;;;;;;;;;;;;;;;;;5032809;28;19928;-60
2023/08/19 00:37:53;;;;;;;;;;;;;;;;;;5050323;28;19925;-60
2023/08/19 00:40:19;;;;;;;;;;;;;;;;;;5050943;28;20067;-60
2023/08/19 00:42:45;;;;;;;;;;;;;;;;;;5053849;28;19921;-60
2023/08/19 00:45:10;;;;;;;;;;;;;;;;;;5050571;28;20408;-60
2023/08/19 00:47:36;;;;;;;;;;;;;;;;;;5048915;28;20013;-60
2023/08/19 00:50:04;;;;;;;;;;;;;;;;;;5048474;28;19920;-60
2023/08/19 00:52:29;;;;;;;;;;;;;;;;;;5047850;28;19924;-60
2023/08/19 00:54:55;;;;;;;;;;;;;;;;;;5050603;28;19927;-60
2023/08/19 00:57:21;;;;;;;;;;;;;;;;;;5049516;28;19925;-60
2023/08/19 00:59:47;;;;;;;;;;;;;;;;;;5052506;28;19931;-60
2023/08/19 01:02:13;;;;;;;;;;;;;;;;;;5051368;28;19925;-60
2023/08/19 01:04:39;;;;;;;;;;;;;;;;;;5051424;28;20428;-60
2023/08/19 01:07:05;;;;;;;;;;;;;;;;;;5050859;28;20013;-60
2023/08/19 01:09:31;;;;;;;;;;;;;;;;;;5051967;28;20258;-60
2023/08/19 01:11:57;;;;;;;;;;;;;;;;;;5051010;28;19932;-60
2023/08/19 01:14:23;;;;;;;;;;;;;;;;;;5047677;28;19925;-60
2023/08/19 01:16:48;;;;;;;;;;;;;;;;;;5048472;28;19921;-60
2023/08/19 01:19:15;;;;;;;;;;;;;;;;;;5023944;28;20003;-60
2023/08/19 01:21:41;;;;;;;;;;;;;;;;;;5047742;28;19932;-60
2023/08/19 01:24:07;;;;;;;;;;;;;;;;;;5031592;28;19971;-60
2023/08/19 01:26:33;;;;;;;;;;;;;;;;;;5051410;28;19929;-60
2023/08/19 01:28:59;;;;;;;;;;;;;;;;;;5049580;28;19924;-60
2023/08/19 01:31:25;;;;;;;;;;;;;;;;;;5048898;28;20302;-60
2023/08/19 01:33:51;;;;;;;;;;;;;;;;;;5049093;28;19928;-60
2023/08/19 01:36:16;;;;;;;;;;;;;;;;;;5046589;28;19971;-60
2023/08/19 01:38:43;;;;;;;;;;;;;;;;;;5048417;28;19928;-60
2023/08/19 01:41:09;;;;;;;;;;;;;;;;;;5048276;28;19929;-60
2023/08/19 01:43:35;;;;;;;;;;;;;;;;;;5047145;28;19982;-60
2023/08/19 01:46:01;;;;;;;;;;;;;;;;;;5046783;28;20397;-60
2023/08/19 01:48:27;;;;;;;;;;;;;;;;;;5031540;28;19932;-60
2023/08/19 01:50:52;;;;;;;;;;;;;;;;;;5047550;28;19956;-60
2023/08/19 01:53:18;;;;;;;;;;;;;;;;;;5028822;28;19927;-59
2023/08/19 01:55:44;;;;;;;;;;;;;;;;;;5051927;28;19920;-59
2023/08/19 01:58:10;;;;;;;;;;;;;;;;;;5045104;28;19925;-60
2023/08/19 02:00:36;;;;;;;;;;;;;;;;;;5027784;28;19936;-59
2023/08/19 02:03:02;;;;;;;;;;;;;;;;;;5047702;28;19924;-59
2023/08/19 02:05:28;;;;;;;;;;;;;;;;;;5029436;28;19932;-59
2023/08/19 02:07:54;;;;;;;;;;;;;;;;;;5046413;28;19933;-59
2023/08/19 02:10:20;;;;;;;;;;;;;;;;;;5033470;28;19921;-59
2023/08/19 02:12:46;;;;;;;;;;;;;;;;;;5048592;28;19929;-60
2023/08/19 02:15:12;;;;;;;;;;;;;;;;;;5025864;28;20016;-60
2023/08/19 02:17:38;;;;;;;;;;;;;;;;;;5048387;28;19929;-60
2023/08/19 02:20:04;;;;;;;;;;;;;;;;;;5049063;28;19920;-60
2023/08/19 02:22:29;;;;;;;;;;;;;;;;;;5072143;23;19982;-62
2023/08/19 02:24:55;;;;;;;;;;;;;;;;;;5056859;28;20460;-62
2023/08/19 02:27:21;;;;;;;;;;;;;;;;;;5066237;28;19928;-62
2023/08/19 02:29:47;;;;;;;;;;;;;;;;;;5059938;28;20216;-62
2023/08/19 02:32:13;;;;;;;;;;;;;;;;;;5068401;28;19928;-62
2023/08/19 02:34:39;;;;;;;;;;;;;;;;;;5073726;28;19920;-63
2023/08/19 02:37:05;;;;;;;;;;;;;;;;;;5070967;28;19924;-63
2023/08/19 02:39:31;;;;;;;;;;;;;;;;;;5064331;28;19921;-63
2023/08/19 02:41:57;;;;;;;;;;;;;;;;;;5065389;28;19927;-63
2023/08/19 02:44:22;;;;;;;;;;;;;;;;;;5068227;28;19924;-63
2023/08/19 02:46:48;;;;;;;;;;;;;;;;;;5071663;28;20362;-62
2023/08/19 02:49:14;;;;;;;;;;;;;;;;;;5068368;28;19954;-62
2023/08/19 02:51:40;;;;;;;;;;;;;;;;;;5070668;28;19966;-62
2023/08/19 02:54:06;;;;;;;;;;;;;;;;;;5068506;28;19964;-62
2023/08/19 02:56:32;;;;;;;;;;;;;;;;;;5064194;28;19959;-62
2023/08/19 02:58:58;;;;;;;;;;;;;;;;;;5070467;28;20373;-62
2023/08/19 03:01:24;;;;;;;;;;;;;;;;;;5068523;28;19928;-63
2023/08/19 03:03:50;;;;;;;;;;;;;;;;;;5068779;28;20341;-62
2023/08/19 03:06:15;;;;;;;;;;;;;;;;;;5068654;28;19928;-62
2023/08/19 03:08:41;;;;;;;;;;;;;;;;;;5068890;28;19925;-63
2023/08/19 03:11:07;;;;;;;;;;;;;;;;;;5071584;28;19962;-63
2023/08/19 03:13:33;;;;;;;;;;;;;;;;;;5064783;28;19968;-63
2023/08/19 03:15:59;;;;;;;;;;;;;;;;;;5069168;28;19924;-63
2023/08/19 03:18:25;;;;;;;;;;;;;;;;;;5069401;28;19920;-63
2023/08/19 03:20:51;;;;;;;;;;;;;;;;;;5071067;28;19993;-62
2023/08/19 03:23:17;;;;;;;;;;;;;;;;;;5056953;28;19981;-63
2023/08/19 03:25:43;;;;;;;;;;;;;;;;;;5068997;28;19924;-63
2023/08/19 03:28:09;;;;;;;;;;;;;;;;;;5069807;28;19928;-63
2023/08/19 03:30:35;;;;;;;;;;;;;;;;;;5066163;28;20015;-63
2023/08/19 03:33:01;;;;;;;;;;;;;;;;;;5053585;28;19932;-63
2023/08/19 03:35:27;;;;;;;;;;;;;;;;;;5058762;28;19947;-63
2023/08/19 03:37:52;;;;;;;;;;;;;;;;;;5070083;28;19928;-63
2023/08/19 03:40:18;;;;;;;;;;;;;;;;;;5067869;28;19924;-63
2023/08/19 03:42:44;;;;;;;;;;;;;;;;;;5064526;28;19973;-63
2023/08/19 03:45:10;;;;;;;;;;;;;;;;;;5068490;28;19928;-63
2023/08/19 03:47:36;;;;;;;;;;;;;;;;;;5065458;28;20013;-63
2023/08/19 03:50:02;;;;;;;;;;;;;;;;;;5070824;28;19925;-63
2023/08/19 03:52:28;;;;;;;;;;;;;;;;;;5067497;28;20420;-63
2023/08/19 03:54:54;;;;;;;;;;;;;;;;;;5069084;28;19971;-63
2023/08/19 03:57:20;;;;;;;;;;;;;;;;;;5066841;28;20011;-63
2023/08/19 03:59:46;;;;;;;;;;;;;;;;;;5080637;28;20385;-63
2023/08/19 04:02:12;;;;;;;;;;;;;;;;;;5066977;28;19928;-61
2023/08/19 04:04:37;;;;;;;;;;;;;;;;;;5062198;28;19929;-62
2023/08/19 04:07:03;;;;;;;;;;;;;;;;;;5062107;28;19928;-62
2023/08/19 04:09:29;;;;;;;;;;;;;;;;;;5068796;28;19924;-62
2023/08/19 04:11:55;;;;;;;;;;;;;;;;;;5066361;28;19929;-62
2023/08/19 04:14:21;;;;;;;;;;;;;;;;;;5070242;28;20369;-62
2023/08/19 04:16:47;;;;;;;;;;;;;;;;;;5065252;28;19967;-62
2023/08/19 04:19:13;;;;;;;;;;;;;;;;;;5067641;28;20320;-62
2023/08/19 04:21:39;;;;;;;;;;;;;;;;;;5063729;28;19920;-62
2023/08/19 04:24:05;;;;;;;;;;;;;;;;;;5054001;28;19928;-62
2023/08/19 04:26:31;;;;;;;;;;;;;;;;;;5068473;28;20439;-62
2023/08/19 04:28:56;;;;;;;;;;;;;;;;;;5069305;28;19920;-62
2023/08/19 04:31:22;;;;;;;;;;;;;;;;;;5064113;28;19920;-62
2023/08/19 04:33:48;;;;;;;;;;;;;;;;;;5067168;28;19924;-62
2023/08/19 04:36:14;;;;;;;;;;;;;;;;;;5069380;28;20007;-62
2023/08/19 04:38:40;;;;;;;;;;;;;;;;;;5066220;28;20269;-62
2023/08/19 04:41:06;;;;;;;;;;;;;;;;;;5068297;28;20003;-62
2023/08/19 04:43:32;;;;;;;;;;;;;;;;;;5067998;28;19936;-63
2023/08/19 04:45:58;;;;;;;;;;;;;;;;;;5066228;28;20008;-62
2023/08/19 04:48:24;;;;;;;;;;;;;;;;;;5066759;28;20407;-62
2023/08/19 04:50:50;;;;;;;;;;;;;;;;;;5071284;28;20023;-62
2023/08/19 04:53:16;;;;;;;;;;;;;;;;;;5071151;28;20019;-62
2023/08/19 04:55:42;;;;;;;;;;;;;;;;;;5067488;28;19985;-62
2023/08/19 04:58:08;;;;;;;;;;;;;;;;;;5071468;28;19920;-62
2023/08/19 05:00:35;;;;;;;;;;;;;;;;;;5071065;28;19932;-62
2023/08/19 05:03:01;;;;;;;;;;;;;;;;;;5070730;28;19978;-62
2023/08/19 05:05:28;;;;;;;;;;;;;;;;;;5067945;28;19955;-63
2023/08/19 05:07:54;;;;;;;;;;;;;;;;;;5063225;28;19963;-63
2023/08/19 05:10:20;;;;;;;;;;;;;;;;;;5073311;28;20373;-63
2023/08/19 05:12:46;;;;;;;;;;;;;;;;;;5065078;28;19928;-63
2023/08/19 05:15:12;;;;;;;;;;;;;;;;;;5070858;28;19994;-63
2023/08/19 05:17:38;;;;;;;;;;;;;;;;;;5071693;28;20016;-63
2023/08/19 05:20:03;;;;;;;;;;;;;;;;;;5072887;28;20011;-63
2023/08/19 05:22:29;;;;;;;;;;;;;;;;;;5070510;28;19973;-63
2023/08/19 05:24:55;;;;;;;;;;;;;;;;;;5070618;28;19944;-63
2023/08/19 05:27:21;;;;;;;;;;;;;;;;;;5073913;28;19931;-63
2023/08/19 05:29:47;;;;;;;;;;;;;;;;;;5067431;28;19920;-63
2023/08/19 05:32:13;;;;;;;;;;;;;;;;;;5072691;28;19925;-63
2023/08/19 05:34:39;;;;;;;;;;;;;;;;;;5072019;28;19920;-63
2023/08/19 05:37:05;;;;;;;;;;;;;;;;;;5064071;28;19921;-63
2023/08/19 05:39:31;;;;;;;;;;;;;;;;;;5065955;28;20009;-63
2023/08/19 05:41:56;;;;;;;;;;;;;;;;;;5070130;28;19925;-63
2023/08/19 05:44:22;;;;;;;;;;;;;;;;;;5072342;28;20282;-62
2023/08/19 05:46:50;;;;;;;;;;;;;;;;;;5069851;28;19920;-62
2023/08/19 05:49:15;;;;;;;;;;;;;;;;;;5071569;28;19935;-62
2023/08/19 05:51:41;;;;;;;;;;;;;;;;;;5068214;28;19924;-62
2023/08/19 05:54:07;;;;;;;;;;;;;;;;;;5059913;28;19966;-62
2023/08/19 05:56:34;;;;;;;;;;;;;;;;;;5063160;28;19925;-62
2023/08/19 05:58:59;;;;;;;;;;;;;;;;;;5072892;28;19925;-62
2023/08/19 06:01:25;;;;;;;;;;;;;;;;;;5069861;28;19973;-62
2023/08/19 06:03:51;;;;;;;;;;;;;;;;;;5064086;28;20524;-62
2023/08/19 06:06:17;;;;;;;;;;;;;;;;;;5069236;28;19931;-62
2023/08/19 06:08:43;;;;;;;;;;;;;;;;;;5071538;28;19924;-62
2023/08/19 06:11:09;;;;;;;;;;;;;;;;;;5071130;28;19924;-62
2023/08/19 06:13:35;;;;;;;;;;;;;;;;;;5070913;28;19928;-62
2023/08/19 06:16:01;;;;;;;;;;;;;;;;;;5072517;28;19931;-62
2023/08/19 06:18:28;;;;;;;;;;;;;;;;;;5070831;28;19927;-62
2023/08/19 06:20:54;;;;;;;;;;;;;;;;;;5062755;28;19998;-62
2023/08/19 06:23:20;;;;;;;;;;;;;;;;;;5055380;28;19929;-62
2023/08/19 06:25:46;;;;;;;;;;;;;;;;;;5053987;28;19920;-62
2023/08/19 06:28:12;;;;;;;;;;;;;;;;;;5065302;28;19924;-62
2023/08/19 06:30:37;;;;;;;;;;;;;;;;;;5071226;28;19924;-62
2023/08/19 06:33:03;;;;;;;;;;;;;;;;;;5070662;28;19978;-62
2023/08/19 06:35:29;;;;;;;;;;;;;;;;;;5059470;28;19921;-62
2023/08/19 06:37:55;;;;;;;;;;;;;;;;;;5068902;28;20069;-62
2023/08/19 06:40:21;;;;;;;;;;;;;;;;;;5067860;28;19997;-62
2023/08/19 06:42:47;;;;;;;;;;;;;;;;;;5072399;28;20350;-62
2023/08/19 06:45:13;;;;;;;;;;;;;;;;;;5067160;28;19924;-62
2023/08/19 06:47:39;;;;;;;;;;;;;;;;;;5057750;28;19920;-62
2023/08/19 06:50:05;;;;;;;;;;;;;;;;;;5069563;28;19932;-62
2023/08/19 06:52:31;;;;;;;;;;;;;;;;;;5064936;28;19924;-62
2023/08/19 06:54:57;;;;;;;;;;;;;;;;;;5062501;28;19928;-62
2023/08/19 06:57:23;;;;;;;;;;;;;;;;;;5066412;28;20073;-62
2023/08/19 06:59:49;;;;;;;;;;;;;;;;;;5068836;28;20408;-62
2023/08/19 07:02:15;;;;;;;;;;;;;;;;;;5068882;28;19979;-63
2023/08/19 07:04:41;;;;;;;;;;;;;;;;;;5088332;28;19924;-63
2023/08/19 07:07:07;;;;;;;;;;;;;;;;;;5072227;28;19927;-63
2023/08/19 07:09:33;;;;;;;;;;;;;;;;;;5069047;28;19932;-63
2023/08/19 07:11:59;;;;;;;;;;;;;;;;;;5066383;28;19920;-62
2023/08/19 07:14:25;;;;;;;;;;;;;;;;;;5066878;28;19954;-63
2023/08/19 07:16:52;;;;;;;;;;;;;;;;;;5066253;28;20310;-62
2023/08/19 07:19:18;;;;;;;;;;;;;;;;;;5066883;28;20427;-62
2023/08/19 07:21:46;;;;;;;;;;;;;;;;;;5068389;28;19975;-62
2023/08/19 07:24:12;;;;;;;;;;;;;;;;;;5065639;28;19932;-62
2023/08/19 07:26:38;;;;;;;;;;;;;;;;;;5068801;28;19935;-62
2023/08/19 07:29:04;;;;;;;;;;;;;;;;;;5059015;28;20328;-64
2023/08/19 07:31:30;;;;;;;;;;;;;;;;;;5065786;28;19927;-63
2023/08/19 07:33:56;;;;;;;;;;;;;;;;;;5068032;28;19974;-63
2023/08/19 07:36:22;;;;;;;;;;;;;;;;;;5067632;28;19944;-63
2023/08/19 07:38:48;;;;;;;;;;;;;;;;;;5069608;28;20354;-63
2023/08/19 07:41:14;;;;;;;;;;;;;;;;;;5070606;28;20014;-67
2023/08/19 07:43:41;;;;;;;;;;;;;;;;;;5069814;28;20570;-63
2023/08/19 07:46:07;;;;;;;;;;;;;;;;;;5067848;28;19927;-63
2023/08/19 07:48:33;;;;;;;;;;;;;;;;;;5071762;28;20535;-63
2023/08/19 07:50:59;;;;;;;;;;;;;;;;;;5070123;28;19926;-63
2023/08/19 07:53:25;;;;;;;;;;;;;;;;;;5059945;28;20259;-63
2023/08/19 07:55:51;;;;;;;;;;;;;;;;;;5061801;28;20553;-63
2023/08/19 07:58:17;;;;;;;;;;;;;;;;;;5063356;28;19931;-63
2023/08/19 08:00:43;;;;;;;;;;;;;;;;;;5062126;28;19920;-63
2023/08/19 08:03:09;;;;;;;;;;;;;;;;;;5063865;28;19920;-63
2023/08/19 08:05:35;;;;;;;;;;;;;;;;;;5056273;28;21064;-63
2023/08/19 08:08:01;;;;;;;;;;;;;;;;;;5066165;28;19928;-63
2023/08/19 08:10:26;;;;;;;;;;;;;;;;;;5052356;28;20478;-63
2023/08/19 08:12:52;;;;;;;;;;;;;;;;;;5062278;28;19931;-63
2023/08/19 08:15:18;;;;;;;;;;;;;;;;;;5071266;28;19920;-63
2023/08/19 08:17:44;;;;;;;;;;;;;;;;;;5066915;28;19982;-63
2023/08/19 08:20:10;;;;;;;;;;;;;;;;;;5062085;28;19999;-63
2023/08/19 08:22:36;;;;;;;;;;;;;;;;;;5066240;28;19924;-63
2023/08/19 08:25:04;;;;;;;;;;;;;;;;;;5071150;28;19924;-63
2023/08/19 08:27:30;;;;;;;;;;;;;;;;;;5059559;28;19920;-63
2023/08/19 08:29:56;;;;;;;;;;;;;;;;;;5065867;28;20397;-63
2023/08/19 08:32:22;;;;;;;;;;;;;;;;;;5073568;28;19986;-63
2023/08/19 08:34:48;;;;;;;;;;;;;;;;;;5070167;28;19963;-63
2023/08/19 08:37:14;;;;;;;;;;;;;;;;;;5059826;28;19921;-63
2023/08/19 08:39:40;;;;;;;;;;;;;;;;;;5062991;28;19932;-63
2023/08/19 08:42:05;;;;;;;;;;;;;;;;;;5075193;28;19920;-63
2023/08/19 08:44:31;;;;;;;;;;;;;;;;;;5073376;28;19932;-63
2023/08/19 08:46:58;;;;;;;;;;;;;;;;;;5070207;28;19929;-64
2023/08/19 08:49:23;;;;;;;;;;;;;;;;;;5071453;28;19924;-63
2023/08/19 08:51:49;;;;;;;;;;;;;;;;;;5065159;28;19963;-63
2023/08/19 08:54:15;;;;;;;;;;;;;;;;;;5063234;28;19924;-62
2023/08/19 08:56:41;;;;;;;;;;;;;;;;;;5066918;28;20353;-62
2023/08/19 08:59:07;;;;;;;;;;;;;;;;;;5063629;28;20011;-62
2023/08/19 09:01:33;;;;;;;;;;;;;;;;;;5061983;28;19920;-62
2023/08/19 09:03:59;;;;;;;;;;;;;;;;;;5063258;28;19925;-63
2023/08/19 09:06:25;;;;;;;;;;;;;;;;;;5064494;28;19975;-62
2023/08/19 09:08:51;;;;;;;;;;;;;;;;;;5069514;28;19931;-63
2023/08/19 09:11:17;;;;;;;;;;;;;;;;;;5069638;28;19920;-62
2023/08/19 09:13:43;;;;;;;;;;;;;;;;;;5062224;28;19921;-60
2023/08/19 09:16:11;;;;;;;;;;;;;;;;;;5074202;28;20266;-61
2023/08/19 09:18:37;;;;;;;;;;;;;;;;;;5069576;28;19928;-59
2023/08/19 09:21:03;;;;;;;;;;;;;;;;;;5067376;28;19920;-60
2023/08/19 09:23:29;;;;;;;;;;;;;;;;;;5070548;28;20400;-60
2023/08/19 09:25:55;;;;;;;;;;;;;;;;;;5065055;28;19929;-60
2023/08/19 09:28:21;;;;;;;;;;;;;;;;;;5062692;28;19927;-60
2023/08/19 09:30:47;;;;;;;;;;;;;;;;;;5065512;28;19924;-60
2023/08/19 09:33:13;;;;;;;;;;;;;;;;;;5067865;28;19928;-60
2023/08/19 09:35:39;;;;;;;;;;;;;;;;;;5068943;28;20622;-60
2023/08/19 09:38:05;;;;;;;;;;;;;;;;;;5069962;28;19998;-60
2023/08/19 09:40:31;;;;;;;;;;;;;;;;;;5069709;28;19920;-60
2023/08/19 09:42:57;;;;;;;;;;;;;;;;;;5071128;28;19960;-60
2023/08/19 09:45:23;;;;;;;;;;;;;;;;;;5067395;28;19982;-60
2023/08/19 09:47:49;;;;;;;;;;;;;;;;;;5068207;28;19921;-60
2023/08/19 09:50:15;;;;;;;;;;;;;;;;;;5068085;28;20400;-60
2023/08/19 09:52:41;;;;;;;;;;;;;;;;;;5058806;28;19925;-60
2023/08/19 09:55:07;;;;;;;;;;;;;;;;;;5070322;28;20391;-60
2023/08/19 09:57:33;;;;;;;;;;;;;;;;;;5069332;28;19921;-60
2023/08/19 09:59:59;;;;;;;;;;;;;;;;;;5069716;28;19939;-60
2023/08/19 10:02:25;;;;;;;;;;;;;;;;;;5066480;28;21561;-59
2023/08/19 10:04:51;;;;;;;;;;;;;;;;;;5073830;28;19924;-59
2023/08/19 10:07:16;;;;;;;;;;;;;;;;;;5069387;28;19955;-60
2023/08/19 10:09:42;;;;;;;;;;;;;;;;;;5065900;28;19925;-60
2023/08/19 10:12:08;;;;;;;;;;;;;;;;;;5072115;28;19925;-62
2023/08/19 10:14:34;;;;;;;;;;;;;;;;;;5067485;28;20011;-62
2023/08/19 10:17:00;;;;;;;;;;;;;;;;;;5051571;28;20005;-62
2023/08/19 10:19:26;;;;;;;;;;;;;;;;;;5065369;28;19943;-64
2023/08/19 10:21:52;;;;;;;;;;;;;;;;;;5067813;28;20006;-63
2023/08/19 10:24:18;;;;;;;;;;;;;;;;;;5066186;28;19928;-65
2023/08/19 10:26:44;;;;;;;;;;;;;;;;;;5064546;28;21789;-64
2023/08/19 10:29:10;;;;;;;;;;;;;;;;;;5057946;28;19927;-64
2023/08/19 10:31:36;;;;;;;;;;;;;;;;;;5063950;28;20366;-64
2023/08/19 10:34:02;;;;;;;;;;;;;;;;;;5062376;28;19931;-63
2023/08/19 10:36:29;;;;;;;;;;;;;;;;;;5062175;28;19928;-63
2023/08/19 10:38:55;;;;;;;;;;;;;;;;;;5060475;28;20013;-63
2023/08/19 10:41:20;;;;;;;;;;;;;;;;;;5066017;28;19967;-63
2023/08/19 10:43:47;;;;;;;;;;;;;;;;;;5055624;28;19946;-64
2023/08/19 10:49:16;;;;;;;;;;;;;;;;;;5065297;28;19931;-63
2023/08/19 10:51:42;;;;;;;;;;;;;;;;;;5066182;28;20294;-64
2023/08/19 10:54:07;;;;;;;;;;;;;;;;;;5058976;28;19970;-63
2023/08/19 10:56:33;;;;;;;;;;;;;;;;;;5070108;28;19927;-65
2023/08/19 10:58:59;;;;;;;;;;;;;;;;;;5070693;28;20015;-64
2023/08/19 11:01:27;;;;;;;;;;;;;;;;;;5065580;28;19920;-64
2023/08/19 11:03:55;;;;;;;;;;;;;;;;;;5068132;28;19928;-65
2023/08/19 11:06:21;;;;;;;;;;;;;;;;;;5062160;28;19944;-65
2023/08/19 11:08:47;;;;;;;;;;;;;;;;;;5066336;28;20349;-65
2023/08/19 11:11:13;;;;;;;;;;;;;;;;;;5058086;28;19963;-65
2023/08/19 11:13:39;;;;;;;;;;;;;;;;;;5060467;28;20003;-63
2023/08/19 11:16:05;;;;;;;;;;;;;;;;;;5064348;28;19933;-64
2023/08/19 11:18:31;;;;;;;;;;;;;;;;;;5069828;28;19936;-64
2023/08/19 11:20:56;;;;;;;;;;;;;;;;;;5054371;28;19925;-65
2023/08/19 11:23:22;;;;;;;;;;;;;;;;;;5061828;28;20286;-65
2023/08/19 11:25:48;;;;;;;;;;;;;;;;;;5057396;28;19925;-65
2023/08/19 11:28:14;;;;;;;;;;;;;;;;;;5060993;28;19920;-65
2023/08/19 11:30:40;;;;;;;;;;;;;;;;;;5052546;28;19925;-66
2023/08/19 11:33:06;;;;;;;;;;;;;;;;;;5061223;28;20354;-65
2023/08/19 11:35:32;;;;;;;;;;;;;;;;;;5062473;28;19935;-63
2023/08/19 11:37:58;;;;;;;;;;;;;;;;;;5068805;28;19925;-63
2023/08/19 11:40:24;;;;;;;;;;;;;;;;;;5054645;28;20280;-63
2023/08/19 11:42:50;;;;;;;;;;;;;;;;;;5062108;28;19928;-62
2023/08/19 11:45:16;;;;;;;;;;;;;;;;;;5058671;28;19966;-64
2023/08/19 11:47:42;;;;;;;;;;;;;;;;;;5060701;28;19932;-62
2023/08/19 11:50:08;;;;;;;;;;;;;;;;;;5068323;28;19975;-59
2023/08/19 11:52:33;;;;;;;;;;;;;;;;;;5067695;28;19921;-59
2023/08/19 11:54:59;;;;;;;;;;;;;;;;;;5061007;28;19955;-60
2023/08/19 11:57:25;;;;;;;;;;;;;;;;;;5061862;28;20460;-60
2023/08/19 11:59:51;;;;;;;;;;;;;;;;;;5060749;28;19932;-60
2023/08/19 12:02:17;;;;;;;;;;;;;;;;;;5060689;28;19928;-60
2023/08/19 12:04:43;;;;;;;;;;;;;;;;;;5069535;28;19982;-60
2023/08/19 12:07:09;;;;;;;;;;;;;;;;;;5067724;28;20035;-60
2023/08/19 12:09:40;;;;;;;;;;;;;;;;;;5060210;28;19928;-59
2023/08/19 12:12:05;;;;;;;;;;;;;;;;;;5055676;28;20311;-60
2023/08/19 12:14:31;;;;;;;;;;;;;;;;;;5068658;28;20019;-60
2023/08/19 12:16:57;;;;;;;;;;;;;;;;;;5060621;28;19920;-60
2023/08/19 12:19:23;;;;;;;;;;;;;;;;;;5071993;28;20293;-60
2023/08/19 12:21:49;;;;;;;;;;;;;;;;;;5068770;28;19924;-60
2023/08/19 12:24:15;;;;;;;;;;;;;;;;;;5062321;28;19956;-60
2023/08/19 12:26:41;;;;;;;;;;;;;;;;;;5061477;28;19979;-60
2023/08/19 12:29:07;;;;;;;;;;;;;;;;;;5071462;28;19924;-60
2023/08/19 12:31:33;;;;;;;;;;;;;;;;;;5060439;28;20427;-60
2023/08/19 12:33:59;;;;;;;;;;;;;;;;;;5071911;28;19928;-60
2023/08/19 12:36:24;;;;;;;;;;;;;;;;;;5070960;28;19975;-60
2023/08/19 12:38:50;;;;;;;;;;;;;;;;;;5067532;28;20247;-60
2023/08/19 12:41:16;;;;;;;;;;;;;;;;;;5071054;28;19925;-60
2023/08/19 12:43:42;;;;;;;;;;;;;;;;;;5057431;28;20020;-59
2023/08/19 12:46:08;;;;;;;;;;;;;;;;;;5063676;28;19921;-60
2023/08/19 12:48:34;;;;;;;;;;;;;;;;;;5072537;28;19966;-60
2023/08/19 12:51:00;;;;;;;;;;;;;;;;;;5070362;28;19975;-59
2023/08/19 12:53:26;;;;;;;;;;;;;;;;;;5066738;28;19925;-60
2023/08/19 12:55:52;;;;;;;;;;;;;;;;;;5064272;28;19931;-60
2023/08/19 12:58:18;;;;;;;;;;;;;;;;;;5065733;28;20239;-60
2023/08/19 13:00:43;;;;;;;;;;;;;;;;;;5068302;28;19963;-60
2023/08/19 13:03:09;;;;;;;;;;;;;;;;;;5062729;28;19925;-60
2023/08/19 13:05:35;;;;;;;;;;;;;;;;;;5070167;28;19975;-60
2023/08/19 13:08:02;;;;;;;;;;;;;;;;;;5065322;28;19920;-60
2023/08/19 13:10:28;;;;;;;;;;;;;;;;;;5070262;28;19959;-60
2023/08/19 13:12:54;;;;;;;;;;;;;;;;;;5070524;28;19963;-59
2023/08/19 13:15:20;;;;;;;;;;;;;;;;;;5084261;28;20334;-60
2023/08/19 13:17:46;;;;;;;;;;;;;;;;;;5070602;28;20015;-59
2023/08/19 13:20:13;;;;;;;;;;;;;;;;;;5075788;28;19960;-60
2023/08/19 13:22:39;;;;;;;;;;;;;;;;;;5068643;28;20011;-60
2023/08/19 13:25:06;;;;;;;;;;;;;;;;;;5062148;28;20402;-60
2023/08/19 13:27:32;;;;;;;;;;;;;;;;;;5064094;28;20015;-60
2023/08/19 13:29:58;;;;;;;;;;;;;;;;;;5063997;28;20018;-60
2023/08/19 13:32:24;;;;;;;;;;;;;;;;;;5056833;28;19928;-60
2023/08/19 13:34:50;;;;;;;;;;;;;;;;;;5063966;28;19974;-60
2023/08/19 13:37:16;;;;;;;;;;;;;;;;;;5063469;28;20389;-60
2023/08/19 13:39:42;;;;;;;;;;;;;;;;;;5065370;28;19928;-59
2023/08/19 13:42:08;;;;;;;;;;;;;;;;;;5065507;28;19924;-59
2023/08/19 13:44:33;;;;;;;;;;;;;;;;;;5067384;28;20358;-60
2023/08/19 13:47:00;;;;;;;;;;;;;;;;;;5062914;28;20535;-60
2023/08/19 13:49:26;;;;;;;;;;;;;;;;;;5062914;28;20023;-60
2023/08/19 13:51:52;;;;;;;;;;;;;;;;;;5063055;28;19999;-60
2023/08/19 13:54:18;;;;;;;;;;;;;;;;;;5062248;28;19921;-60
2023/08/19 13:56:43;;;;;;;;;;;;;;;;;;5064477;28;19925;-60
2023/08/19 13:59:09;;;;;;;;;;;;;;;;;;5066380;28;19920;-59
2023/08/19 14:01:36;;;;;;;;;;;;;;;;;;5070625;28;20325;-60
2023/08/19 14:04:02;;;;;;;;;;;;;;;;;;5068980;28;19970;-60
2023/08/19 14:06:27;;;;;;;;;;;;;;;;;;5071740;28;19929;-63
2023/08/19 14:08:54;;;;;;;;;;;;;;;;;;5071971;28;19920;-61
2023/08/19 14:11:19;;;;;;;;;;;;;;;;;;5072253;28;19920;-61
2023/08/19 14:13:45;;;;;;;;;;;;;;;;;;5072773;28;20262;-61
2023/08/19 14:16:11;;;;;;;;;;;;;;;;;;5065073;28;19924;-61
2023/08/19 14:18:37;;;;;;;;;;;;;;;;;;5070993;28;20426;-61
2023/08/19 14:21:03;;;;;;;;;;;;;;;;;;5070310;28;19920;-61
2023/08/19 14:23:29;;;;;;;;;;;;;;;;;;5064555;28;19978;-61
2023/08/19 14:25:55;;;;;;;;;;;;;;;;;;5058639;28;19933;-61
2023/08/19 14:28:21;;;;;;;;;;;;;;;;;;5053012;28;19920;-61
2023/08/19 14:30:47;;;;;;;;;;;;;;;;;;5057719;28;20604;-61
2023/08/19 14:33:13;;;;;;;;;;;;;;;;;;5055615;28;19935;-61
2023/08/19 14:35:41;;;;;;;;;;;;;;;;;;5062695;28;19925;-61
2023/08/19 14:38:07;;;;;;;;;;;;;;;;;;5084648;23;19951;-61
2023/08/19 14:40:33;;;;;;;;;;;;;;;;;;5047267;28;20013;-61
2023/08/19 14:42:59;;;;;;;;;;;;;;;;;;5047210;28;20385;-61
2023/08/19 14:45:25;;;;;;;;;;;;;;;;;;5043223;28;19935;-61
2023/08/19 14:47:51;;;;;;;;;;;;;;;;;;5049395;28;19925;-61
2023/08/19 14:50:17;;;;;;;;;;;;;;;;;;5047746;28;19932;-60
2023/08/19 14:52:43;;;;;;;;;;;;;;;;;;5024953;28;20694;-61
2023/08/19 14:55:09;;;;;;;;;;;;;;;;;;5050772;28;19931;-61
2023/08/19 14:57:35;;;;;;;;;;;;;;;;;;5048747;28;19928;-61
2023/08/19 15:00:00;;;;;;;;;;;;;;;;;;5045761;28;19927;-61
2023/08/19 15:02:26;;;;;;;;;;;;;;;;;;5048551;28;19924;-61
2023/08/19 15:04:52;;;;;;;;;;;;;;;;;;5046288;28;20301;-60
2023/08/19 15:07:18;;;;;;;;;;;;;;;;;;5046127;28;20416;-60
2023/08/19 15:09:44;;;;;;;;;;;;;;;;;;5044815;28;19968;-61
2023/08/19 15:12:10;;;;;;;;;;;;;;;;;;5050111;28;20267;-61
2023/08/19 15:14:36;;;;;;;;;;;;;;;;;;5048739;28;19932;-60
2023/08/19 15:17:02;;;;;;;;;;;;;;;;;;5041138;28;19921;-60
2023/08/19 15:19:28;;;;;;;;;;;;;;;;;;5048406;28;20011;-60
2023/08/19 15:21:54;;;;;;;;;;;;;;;;;;5047021;28;20055;-60
2023/08/19 15:24:20;;;;;;;;;;;;;;;;;;5045233;28;19928;-60
2023/08/19 15:26:46;;;;;;;;;;;;;;;;;;5045954;28;20377;-60
2023/08/19 15:29:12;;;;;;;;;;;;;;;;;;5046923;28;19920;-59
2023/08/19 15:31:38;;;;;;;;;;;;;;;;;;5042220;28;19932;-60
2023/08/19 15:34:04;;;;;;;;;;;;;;;;;;5044045;28;19920;-60
2023/08/19 15:36:30;;;;;;;;;;;;;;;;;;5044195;28;20546;-60
2023/08/19 15:38:56;;;;;;;;;;;;;;;;;;5048352;28;20409;-60
2023/08/19 15:41:22;;;;;;;;;;;;;;;;;;5041508;28;20008;-60
2023/08/19 15:43:47;;;;;;;;;;;;;;;;;;5012583;28;19920;-60
2023/08/19 15:46:13;;;;;;;;;;;;;;;;;;5049746;28;19925;-60
2023/08/19 15:48:39;;;;;;;;;;;;;;;;;;5045837;28;19920;-60
2023/08/19 15:51:05;;;;;;;;;;;;;;;;;;5044656;28;19947;-60
2023/08/19 15:53:31;;;;;;;;;;;;;;;;;;5047908;28;19955;-60
2023/08/19 15:55:57;;;;;;;;;;;;;;;;;;5041774;28;19920;-60
2023/08/19 15:58:23;;;;;;;;;;;;;;;;;;5040167;28;19921;-60
2023/08/19 16:00:49;;;;;;;;;;;;;;;;;;5032287;28;19925;-65
2023/08/19 16:03:15;;;;;;;;;;;;;;;;;;5032415;28;20455;-65
2023/08/19 16:05:41;;;;;;;;;;;;;;;;;;5027454;28;19921;-64
2023/08/19 16:08:07;;;;;;;;;;;;;;;;;;5048644;28;20043;-64
2023/08/19 16:10:33;;;;;;;;;;;;;;;;;;5045370;28;20366;-64
2023/08/19 16:12:59;;;;;;;;;;;;;;;;;;5045819;28;20046;-64
2023/08/19 16:15:25;;;;;;;;;;;;;;;;;;5045861;28;19928;-64
2023/08/19 16:17:51;;;;;;;;;;;;;;;;;;5050629;28;19927;-64
2023/08/19 16:20:16;;;;;;;;;;;;;;;;;;5049456;28;19931;-64
2023/08/19 16:22:42;;;;;;;;;;;;;;;;;;5024895;28;19925;-64
2023/08/19 16:25:09;;;;;;;;;;;;;;;;;;5036099;28;20274;-64
2023/08/19 16:27:35;;;;;;;;;;;;;;;;;;5046819;28;20055;-64
2023/08/19 16:30:01;;;;;;;;;;;;;;;;;;5040213;28;20066;-65
2023/08/19 16:32:27;;;;;;;;;;;;;;;;;;5043139;28;20602;-65
2023/08/19 16:34:53;;;;;;;;;;;;;;;;;;5040205;28;19928;-64
2023/08/19 16:37:19;;;;;;;;;;;;;;;;;;5045102;28;19959;-64
2023/08/19 16:39:44;;;;;;;;;;;;;;;;;;5046183;28;20405;-64